MUC weather

Munich Airport
Munich, Bavaria, Germany

Public forecast

Using degrees Celsius for public forecast. Weather courtesy of forecast.io.

Current aviation weather report (METAR) for Munich Airport

Retrieved 2020/04/07 09:20 UTC (6 minutes ago):

EDDM 070920Z VRB02KT CAVOK 16/03 Q1030 BECMG 07005KT

Aviation forecast (TAF) for Munich Airport

Retrieved 2020/04/07 06:27 UTC (3 hours ago):

TAF EDDM 070500Z 0706/0812 VRB02KT CAVOK BECMG 0708/0710 08009KT BECMG 0716/0718 07004KT